createdAt,value
2023-01-19T00:00:52.655Z,1.51
2023-01-19T00:03:21.998Z,1.59
2023-01-19T00:05:49.898Z,1.59
2023-01-19T00:08:17.949Z,1.60
2023-01-19T00:10:47.099Z,1.57
2023-01-19T00:13:15.953Z,1.62
2023-01-19T00:15:44.271Z,1.66
2023-01-19T00:18:12.286Z,1.66
2023-01-19T00:20:41.887Z,1.64
2023-01-19T00:23:09.809Z,1.60
2023-01-19T00:25:42.501Z,1.67
2023-01-19T00:28:11.161Z,1.66
2023-01-19T00:30:39.311Z,1.67
2023-01-19T00:33:07.411Z,1.59
2023-01-19T00:35:35.376Z,1.61
2023-01-19T00:38:05.016Z,1.62
2023-01-19T00:40:35.240Z,1.59
2023-01-19T00:43:04.328Z,1.54
2023-01-19T00:45:32.418Z,1.50
2023-01-19T00:48:00.432Z,1.49
2023-01-19T00:50:29.554Z,1.50
2023-01-19T00:52:58.532Z,1.50
2023-01-19T00:55:29.337Z,1.45
2023-01-19T00:57:57.464Z,1.44
2023-01-19T01:00:25.661Z,1.42
2023-01-19T01:02:54.247Z,1.46
2023-01-19T01:08:07.857Z,1.37
2023-01-19T01:10:37.199Z,1.40
2023-01-19T01:13:20.877Z,1.47
2023-01-19T01:15:51.113Z,1.31
2023-01-19T01:18:19.154Z,1.41
2023-01-19T01:20:47.095Z,1.36
2023-01-19T01:23:15.226Z,1.39
2023-01-19T01:25:44.718Z,1.42
2023-01-19T01:28:12.790Z,1.44
2023-01-19T01:30:41.329Z,1.49
2023-01-19T01:33:09.704Z,1.47
2023-01-19T01:35:37.615Z,1.41
2023-01-19T01:38:05.673Z,1.43
2023-01-19T01:40:33.597Z,1.46
2023-01-19T01:43:03.623Z,1.48
2023-01-19T01:45:33.020Z,1.47
2023-01-19T01:48:03.889Z,1.51
2023-01-19T01:50:34.143Z,1.54
2023-01-19T01:53:06.941Z,1.55
2023-01-19T01:55:38.131Z,1.45
2023-01-19T01:58:09.723Z,1.46
2023-01-19T02:00:52.313Z,1.42
2023-01-19T02:03:20.508Z,1.30
2023-01-19T02:05:48.431Z,1.30
2023-01-19T02:08:36.928Z,1.35
2023-01-19T02:11:22.321Z,1.37
2023-01-19T02:13:52.175Z,1.36
2023-01-19T02:16:20.298Z,1.42
2023-01-19T02:18:48.390Z,1.42
2023-01-19T02:21:19.123Z,1.44
2023-01-19T02:23:50.384Z,1.50
2023-01-19T02:26:20.637Z,1.47
2023-01-19T02:28:51.117Z,1.43
2023-01-19T02:31:19.500Z,1.43
2023-01-19T02:33:47.775Z,1.44
2023-01-19T02:36:17.036Z,1.41
2023-01-19T02:38:46.302Z,1.30
2023-01-19T02:41:18.408Z,1.30
2023-01-19T02:43:47.393Z,1.23
2023-01-19T02:46:15.754Z,1.29
2023-01-19T02:48:43.978Z,1.26
2023-01-19T02:51:14.225Z,1.33
2023-01-19T02:53:51.264Z,1.30
2023-01-19T02:56:37.305Z,1.19
2023-01-19T02:59:07.565Z,1.25
2023-01-19T03:01:41.512Z,1.32
2023-01-19T03:04:13.623Z,1.30
2023-01-19T03:06:46.088Z,1.27
2023-01-19T03:09:17.289Z,1.26
2023-01-19T03:11:51.662Z,1.21
2023-01-19T03:14:24.794Z,1.21
2023-01-19T03:16:56.165Z,1.26
2023-01-19T03:19:27.343Z,1.30
2023-01-19T03:21:59.365Z,1.27
2023-01-19T03:24:30.952Z,1.26
2023-01-19T03:27:02.987Z,1.34
2023-01-19T03:29:34.921Z,1.40
2023-01-19T03:32:04.379Z,1.42
2023-01-19T03:34:32.690Z,1.40
2023-01-19T03:37:04.109Z,1.38
2023-01-19T03:39:32.607Z,1.39
2023-01-19T03:42:04.375Z,1.39
2023-01-19T03:44:33.588Z,1.45
2023-01-19T03:47:02.174Z,1.41
2023-01-19T03:49:31.789Z,1.40
2023-01-19T03:52:00.338Z,1.47
2023-01-19T03:54:28.355Z,1.49
2023-01-19T03:56:56.299Z,1.52
2023-01-19T03:59:25.841Z,1.48
2023-01-19T04:01:53.801Z,1.47
2023-01-19T04:04:22.248Z,1.54
2023-01-19T04:06:50.091Z,1.54
2023-01-19T04:09:19.362Z,1.62
2023-01-19T04:11:48.265Z,1.59
2023-01-19T04:14:16.226Z,1.65
2023-01-19T04:16:45.666Z,1.67
2023-01-19T04:19:13.837Z,1.66
2023-01-19T04:21:41.828Z,1.71
2023-01-19T04:24:10.941Z,1.68
2023-01-19T04:26:38.969Z,1.74
2023-01-19T04:29:06.836Z,1.75
2023-01-19T04:31:35.842Z,1.80
2023-01-19T04:34:05.373Z,1.82
2023-01-19T04:36:33.234Z,1.81
2023-01-19T04:39:01.345Z,1.81
2023-01-19T04:41:31.102Z,1.84
2023-01-19T04:43:59.128Z,1.79
2023-01-19T04:49:27.081Z,1.85
2023-01-19T04:51:55.475Z,1.90
2023-01-19T04:54:24.293Z,1.91
2023-01-19T04:56:52.493Z,1.92
2023-01-19T04:59:21.712Z,1.95
2023-01-19T05:01:50.050Z,1.99
2023-01-19T05:04:18.308Z,2.00
2023-01-19T05:06:47.856Z,2.00
2023-01-19T05:09:16.024Z,1.94
2023-01-19T05:11:44.178Z,2.01
2023-01-19T05:14:12.368Z,2.03
2023-01-19T05:16:40.729Z,2.04
2023-01-19T05:19:09.261Z,2.08
2023-01-19T05:21:37.520Z,2.07
2023-01-19T05:24:07.670Z,2.10
2023-01-19T05:26:35.701Z,2.20
2023-01-19T05:29:03.659Z,2.18
2023-01-19T05:31:32.211Z,2.13
2023-01-19T05:34:00.578Z,2.19
2023-01-19T05:36:28.591Z,2.15
2023-01-19T05:38:56.772Z,2.19
2023-01-19T05:41:26.316Z,2.22
2023-01-19T05:43:54.970Z,2.24
2023-01-19T05:46:23.120Z,2.23
2023-01-19T05:48:51.360Z,2.22
2023-01-19T05:51:19.625Z,2.23
2023-01-19T05:53:47.519Z,2.27
2023-01-19T05:56:15.892Z,2.23
2023-01-19T05:58:45.239Z,2.27
2023-01-19T06:01:15.485Z,2.26
2023-01-19T06:03:43.538Z,2.27
2023-01-19T06:06:11.827Z,2.30
2023-01-19T06:08:40.057Z,2.29
2023-01-19T06:11:08.865Z,2.32
2023-01-19T06:13:36.870Z,2.34
2023-01-19T06:16:06.852Z,2.33
2023-01-19T06:18:35.090Z,2.42
2023-01-19T06:21:04.759Z,2.41
2023-01-19T06:23:33.686Z,2.37
2023-01-19T06:26:01.853Z,2.33
2023-01-19T06:28:30.095Z,2.47
2023-01-19T06:30:58.372Z,2.42
2023-01-19T06:33:29.117Z,2.46
2023-01-19T06:35:57.654Z,2.48
2023-01-19T06:38:25.790Z,2.53
2023-01-19T06:40:54.987Z,2.36
2023-01-19T06:43:23.493Z,2.50
2023-01-19T06:45:51.616Z,2.57
2023-01-19T06:48:19.734Z,2.62
2023-01-19T06:50:49.770Z,2.66
2023-01-19T06:53:20.011Z,2.70
2023-01-19T06:55:47.892Z,2.65
2023-01-19T06:58:15.842Z,2.69
2023-01-19T07:00:44.300Z,2.77
2023-01-19T07:03:19.389Z,2.75
2023-01-19T07:05:50.044Z,2.72
2023-01-19T07:08:18.156Z,2.75
2023-01-19T07:11:24.659Z,2.79
2023-01-19T07:13:34.556Z,2.76
2023-01-19T07:16:06.658Z,2.84
2023-01-19T07:18:35.334Z,2.86
2023-01-19T07:21:05.105Z,2.87
2023-01-19T07:23:33.144Z,2.84
2023-01-19T07:26:02.359Z,2.84
2023-01-19T07:28:31.183Z,2.84
2023-01-19T07:30:59.747Z,2.81
2023-01-19T07:33:28.367Z,2.86
2023-01-19T07:35:56.551Z,2.85
2023-01-19T07:38:26.093Z,2.92
2023-01-19T07:41:01.088Z,2.89
2023-01-19T07:43:29.245Z,2.88
2023-01-19T07:45:57.771Z,2.93
2023-01-19T07:48:25.773Z,2.93
2023-01-19T07:50:53.873Z,2.95
2023-01-19T07:53:22.582Z,2.95
2023-01-19T07:55:56.994Z,2.87
2023-01-19T07:58:25.031Z,2.96
2023-01-19T08:00:53.354Z,2.95
2023-01-19T08:03:21.438Z,2.94
2023-01-19T08:05:51.218Z,2.95
2023-01-19T08:08:19.454Z,2.99
2023-01-19T08:10:50.648Z,2.97
2023-01-19T08:13:20.601Z,3.01
2023-01-19T08:15:50.496Z,3.11
2023-01-19T08:18:18.978Z,3.09
2023-01-19T08:23:55.995Z,3.15
2023-01-19T08:26:28.512Z,3.19
2023-01-19T08:28:58.987Z,3.15
2023-01-19T08:31:27.487Z,3.16
2023-01-19T08:33:56.131Z,3.16
2023-01-19T08:36:25.217Z,3.16
2023-01-19T08:38:53.410Z,3.12
2023-01-19T08:41:22.610Z,3.15
2023-01-19T08:43:50.853Z,3.13
2023-01-19T08:46:22.094Z,3.22
2023-01-19T08:48:50.750Z,3.23
2023-01-19T08:51:18.929Z,3.20
2023-01-19T08:53:46.989Z,3.18
2023-01-19T08:56:15.298Z,3.19
2023-01-19T08:58:43.843Z,3.11
2023-01-19T09:01:17.110Z,3.16
2023-01-19T09:03:46.974Z,3.11
2023-01-19T09:06:17.445Z,3.13
2023-01-19T09:08:45.558Z,3.13
2023-01-19T09:11:14.840Z,3.13
2023-01-19T09:13:42.976Z,3.12
2023-01-19T09:16:12.786Z,3.16
2023-01-19T09:18:41.377Z,3.02
2023-01-19T09:21:10.744Z,3.07
2023-01-19T09:23:38.806Z,3.10
2023-01-19T09:26:07.847Z,3.08
2023-01-19T09:28:35.982Z,3.17
2023-01-19T09:31:06.116Z,3.05
2023-01-19T09:33:34.696Z,3.16
2023-01-19T09:36:03.202Z,3.19
2023-01-19T09:38:33.154Z,3.22
2023-01-19T09:41:01.931Z,3.28
2023-01-19T09:43:38.931Z,3.27
2023-01-19T09:46:11.016Z,3.37
2023-01-19T09:48:46.005Z,3.32
2023-01-19T09:51:17.129Z,3.32
2023-01-19T09:53:52.648Z,3.29
2023-01-19T09:56:21.921Z,3.33
2023-01-19T09:58:51.284Z,3.41
2023-01-19T10:01:28.137Z,3.51
2023-01-19T10:04:06.865Z,3.42
2023-01-19T10:06:35.042Z,3.43
2023-01-19T10:09:09.814Z,3.45
2023-01-19T10:11:52.084Z,3.44
2023-01-19T10:14:23.121Z,3.49
2023-01-19T10:16:54.769Z,3.45
2023-01-19T10:19:25.032Z,3.40
2023-01-19T10:21:53.277Z,3.47
2023-01-19T10:24:25.910Z,3.41
2023-01-19T10:26:54.937Z,3.41
2023-01-19T10:29:24.042Z,3.43
2023-01-19T10:31:53.322Z,3.45
2023-01-19T10:34:23.623Z,3.50
2023-01-19T10:36:55.363Z,3.51
2023-01-19T10:39:25.015Z,3.57
2023-01-19T10:41:54.564Z,3.61
2023-01-19T10:44:26.369Z,3.61
2023-01-19T10:46:55.517Z,3.48
2023-01-19T10:49:28.102Z,3.46
2023-01-19T10:51:56.989Z,3.37
2023-01-19T10:54:27.968Z,3.45
2023-01-19T10:56:58.013Z,3.46
2023-01-19T10:59:33.394Z,3.48
2023-01-19T11:02:14.174Z,3.55
2023-01-19T11:04:45.081Z,3.50
2023-01-19T11:07:17.933Z,3.50
2023-01-19T11:09:47.972Z,3.59
2023-01-19T11:12:23.302Z,3.64
2023-01-19T11:14:51.785Z,3.51
2023-01-19T11:17:21.270Z,3.41
2023-01-19T11:19:57.547Z,3.49
2023-01-19T11:22:28.375Z,3.41
2023-01-19T11:25:02.287Z,3.43
2023-01-19T11:27:32.466Z,3.51
2023-01-19T11:30:08.084Z,3.52
2023-01-19T11:32:37.269Z,3.38
2023-01-19T11:35:20.176Z,3.30
2023-01-19T11:37:48.387Z,3.32
2023-01-19T11:40:17.657Z,3.22
2023-01-19T11:42:47.245Z,3.16
2023-01-19T11:45:16.622Z,3.19
2023-01-19T11:47:46.046Z,3.25
2023-01-19T11:50:16.903Z,3.34
2023-01-19T11:55:41.583Z,3.32
2023-01-19T11:58:15.635Z,3.15
2023-01-19T12:00:45.074Z,3.15
2023-01-19T12:03:17.325Z,3.23
2023-01-19T12:05:48.389Z,3.11
2023-01-19T12:08:18.172Z,3.04
2023-01-19T12:10:48.568Z,3.04
2023-01-19T12:13:22.014Z,3.03
2023-01-19T12:15:51.744Z,3.05
2023-01-19T12:18:21.285Z,3.12
2023-01-19T12:20:51.839Z,3.13
2023-01-19T12:23:25.821Z,3.22
2023-01-19T12:26:01.224Z,3.11
2023-01-19T12:28:32.803Z,3.07
2023-01-19T12:31:01.881Z,2.95
2023-01-19T12:33:37.999Z,2.97
2023-01-19T12:36:10.061Z,3.00
2023-01-19T12:38:42.388Z,3.12
2023-01-19T12:41:24.592Z,2.94
2023-01-19T12:44:07.353Z,2.92
2023-01-19T12:46:38.554Z,2.97
2023-01-19T12:49:07.465Z,2.95
2023-01-19T12:51:35.996Z,2.89
2023-01-19T12:54:06.345Z,2.89
2023-01-19T12:56:35.777Z,2.91
2023-01-19T12:59:04.548Z,2.83
2023-01-19T13:01:33.001Z,2.77
2023-01-19T13:04:07.005Z,2.83
2023-01-19T13:06:54.302Z,2.86
2023-01-19T13:09:30.185Z,2.89
2023-01-19T13:12:21.519Z,2.87
2023-01-19T13:14:51.127Z,2.77
2023-01-19T13:17:31.222Z,2.86
2023-01-19T13:20:06.069Z,2.83
2023-01-19T13:22:57.984Z,2.87
2023-01-19T13:25:29.298Z,2.74
2023-01-19T13:27:57.680Z,2.72
2023-01-19T13:30:28.736Z,2.69
2023-01-19T13:32:58.284Z,2.77
2023-01-19T13:35:28.771Z,2.71
2023-01-19T13:37:59.008Z,2.66
2023-01-19T13:40:39.199Z,2.53
2023-01-19T13:43:14.516Z,2.23
2023-01-19T13:45:43.240Z,2.42
2023-01-19T13:48:17.072Z,2.47
2023-01-19T13:50:57.751Z,2.51
2023-01-19T13:53:25.742Z,2.45
2023-01-19T13:56:10.484Z,2.37
2023-01-19T13:58:38.498Z,2.39
2023-01-19T14:01:07.855Z,2.43
2023-01-19T14:03:36.180Z,2.37
2023-01-19T14:06:05.822Z,2.32
2023-01-19T14:08:33.993Z,2.23
2023-01-19T14:11:03.226Z,2.27
2023-01-19T14:13:32.715Z,2.34
2023-01-19T14:16:02.030Z,2.24
2023-01-19T14:18:31.327Z,2.23
2023-01-19T14:21:02.044Z,2.26
2023-01-19T14:23:46.002Z,2.28
2023-01-19T14:26:32.788Z,2.22
2023-01-19T14:29:08.275Z,2.20
2023-01-19T14:31:43.980Z,2.13
2023-01-19T14:34:27.177Z,2.09
2023-01-19T14:36:55.328Z,2.10
2023-01-19T14:39:25.836Z,2.17
2023-01-19T14:41:54.705Z,2.09
2023-01-19T14:44:26.527Z,1.98
2023-01-19T14:46:54.824Z,2.00
2023-01-19T14:49:27.317Z,2.10
2023-01-19T14:51:56.148Z,1.94
2023-01-19T14:54:31.073Z,1.97
2023-01-19T14:56:59.168Z,1.91
2023-01-19T14:59:27.216Z,1.90
2023-01-19T15:01:55.283Z,1.87
2023-01-19T15:04:23.384Z,1.92
2023-01-19T15:06:53.820Z,1.86
2023-01-19T15:09:21.859Z,2.02
2023-01-19T15:11:51.620Z,2.01
2023-01-19T15:14:21.125Z,1.93
2023-01-19T15:16:49.246Z,1.89
2023-01-19T15:19:18.419Z,1.90
2023-01-19T15:22:13.273Z,1.89
2023-01-19T15:24:44.596Z,1.95
2023-01-19T15:27:14.373Z,1.87
2023-01-19T15:29:42.387Z,1.94
2023-01-19T15:32:12.868Z,2.03
2023-01-19T15:34:41.006Z,2.06
2023-01-19T15:37:09.162Z,1.96
2023-01-19T15:39:37.123Z,1.92
2023-01-19T15:42:05.120Z,1.85
2023-01-19T15:44:34.501Z,1.86
2023-01-19T15:47:02.629Z,1.86
2023-01-19T15:49:31.052Z,1.96
2023-01-19T15:51:59.149Z,1.93
2023-01-19T15:54:27.171Z,1.93
2023-01-19T15:56:55.266Z,1.95
2023-01-19T15:59:23.838Z,1.92
2023-01-19T16:01:53.396Z,1.92
2023-01-19T16:04:21.429Z,1.93
2023-01-19T16:06:50.164Z,1.82
2023-01-19T16:09:20.287Z,1.85
2023-01-19T16:11:48.259Z,1.71
2023-01-19T16:14:17.562Z,1.91
2023-01-19T16:16:46.328Z,1.94
2023-01-19T16:19:16.997Z,1.97
2023-01-19T16:21:45.124Z,1.92
2023-01-19T16:24:13.209Z,1.85
2023-01-19T16:26:41.234Z,1.85
2023-01-19T16:29:10.958Z,1.85
2023-01-19T16:31:39.844Z,1.87
2023-01-19T16:34:08.166Z,1.96
2023-01-19T16:36:38.479Z,1.89
2023-01-19T16:39:07.566Z,1.81
2023-01-19T16:41:36.183Z,1.84
2023-01-19T16:44:04.592Z,1.91
2023-01-19T16:46:34.146Z,1.81
2023-01-19T16:49:03.338Z,1.82
2023-01-19T16:51:31.728Z,1.81
2023-01-19T16:54:01.220Z,1.86
2023-01-19T16:56:29.173Z,1.88
2023-01-19T16:58:57.983Z,1.92
2023-01-19T17:01:27.506Z,1.80
2023-01-19T17:03:56.694Z,1.88
2023-01-19T17:06:25.144Z,1.89
2023-01-19T17:08:53.953Z,1.80
2023-01-19T17:11:25.638Z,1.81
2023-01-19T17:13:55.344Z,1.81
2023-01-19T17:16:23.782Z,1.88
2023-01-19T17:18:51.750Z,1.71
2023-01-19T17:21:20.153Z,1.70
2023-01-19T17:23:51.145Z,1.74
2023-01-19T17:26:19.876Z,1.72
2023-01-19T17:28:49.540Z,1.72
2023-01-19T17:31:18.670Z,1.81
2023-01-19T17:33:47.791Z,1.80
2023-01-19T17:36:16.947Z,1.80
2023-01-19T17:38:44.936Z,1.86
2023-01-19T17:41:13.832Z,1.88
2023-01-19T17:43:42.083Z,1.85
2023-01-19T17:46:11.701Z,1.94
2023-01-19T17:48:40.456Z,1.81
2023-01-19T17:51:09.973Z,1.82
2023-01-19T17:53:38.586Z,1.86
2023-01-19T17:56:07.272Z,1.77
2023-01-19T17:58:35.373Z,1.88
2023-01-19T18:01:09.192Z,1.85
2023-01-19T18:03:38.761Z,1.94
2023-01-19T18:06:07.171Z,1.92
2023-01-19T18:08:36.561Z,1.96
2023-01-19T18:11:04.727Z,1.95
2023-01-19T18:13:32.973Z,2.02
2023-01-19T18:16:01.452Z,1.92
2023-01-19T18:18:29.962Z,1.97
2023-01-19T18:21:01.324Z,1.87
2023-01-19T18:23:29.664Z,1.91
2023-01-19T18:26:00.739Z,1.91
2023-01-19T18:28:29.257Z,1.86
2023-01-19T18:30:57.460Z,1.80
2023-01-19T18:33:25.772Z,1.91
2023-01-19T18:35:53.708Z,1.83
2023-01-19T18:38:23.036Z,1.87
2023-01-19T18:40:51.155Z,1.89
2023-01-19T18:43:19.186Z,1.88
2023-01-19T18:45:48.426Z,1.92
2023-01-19T18:48:17.992Z,1.85
2023-01-19T18:50:46.098Z,1.95
2023-01-19T18:55:56.697Z,1.83
2023-01-19T18:58:28.679Z,1.88
2023-01-19T19:00:57.665Z,1.93
2023-01-19T19:03:28.576Z,1.97
2023-01-19T19:05:56.970Z,2.04
2023-01-19T19:08:25.384Z,2.02
2023-01-19T19:10:53.261Z,1.93
2023-01-19T19:13:23.796Z,1.94
2023-01-19T19:15:52.770Z,2.02
2023-01-19T19:18:20.922Z,2.01
2023-01-19T19:20:48.907Z,2.09
2023-01-19T19:23:16.889Z,2.03
2023-01-19T19:25:44.929Z,1.98
2023-01-19T19:28:12.976Z,2.03
2023-01-19T19:30:42.486Z,1.98
2023-01-19T19:33:10.438Z,2.03
2023-01-19T19:35:38.390Z,2.07
2023-01-19T19:38:06.463Z,2.04
2023-01-19T19:40:34.512Z,2.02
2023-01-19T19:43:03.039Z,2.00
2023-01-19T19:45:31.100Z,2.02
2023-01-19T19:48:00.646Z,2.08
2023-01-19T19:50:28.661Z,2.08
2023-01-19T19:52:58.864Z,2.01
2023-01-19T19:55:26.966Z,2.03
2023-01-19T19:57:55.342Z,2.16
2023-01-19T20:00:23.411Z,2.11
2023-01-19T20:02:52.022Z,2.16
2023-01-19T20:05:21.347Z,2.02
2023-01-19T20:07:49.350Z,2.07
2023-01-19T20:10:17.774Z,2.18
2023-01-19T20:12:45.963Z,2.18
2023-01-19T20:15:13.988Z,2.11
2023-01-19T20:17:42.704Z,2.14
2023-01-19T20:20:11.936Z,2.11
2023-01-19T20:22:41.904Z,2.11
2023-01-19T20:25:11.275Z,2.04
2023-01-19T20:27:39.393Z,2.06
2023-01-19T20:30:08.229Z,2.11
2023-01-19T20:32:36.385Z,2.11
2023-01-19T20:35:05.332Z,2.17
2023-01-19T20:37:33.611Z,2.13
2023-01-19T20:40:03.488Z,2.13
2023-01-19T20:42:31.582Z,2.16
2023-01-19T20:44:59.545Z,2.14
2023-01-19T20:47:27.517Z,2.13
2023-01-19T20:49:55.452Z,2.10
2023-01-19T20:52:23.730Z,2.08
2023-01-19T20:54:52.294Z,2.10
2023-01-19T20:57:22.646Z,2.04
2023-01-19T20:59:50.709Z,2.07
2023-01-19T21:02:18.843Z,2.14
2023-01-19T21:04:46.819Z,2.07
2023-01-19T21:07:14.885Z,2.12
2023-01-19T21:09:43.083Z,2.18
2023-01-19T21:12:11.871Z,2.16
2023-01-19T21:14:42.557Z,2.17
2023-01-19T21:17:10.569Z,2.22
2023-01-19T21:19:38.585Z,2.29
2023-01-19T21:22:06.735Z,2.32
2023-01-19T21:24:34.690Z,2.37
2023-01-19T21:27:02.669Z,2.33
2023-01-19T21:29:30.769Z,2.29
2023-01-19T21:32:01.280Z,2.34
2023-01-19T21:34:29.245Z,2.41
2023-01-19T21:36:57.294Z,2.35
2023-01-19T21:39:25.268Z,2.42
2023-01-19T21:41:53.489Z,2.49
2023-01-19T21:44:21.697Z,2.49
2023-01-19T21:46:53.835Z,2.48
2023-01-19T21:49:23.309Z,2.48
2023-01-19T21:51:51.578Z,2.53
2023-01-19T21:54:20.171Z,2.49
2023-01-19T21:56:48.058Z,2.53
2023-01-19T21:59:19.680Z,2.52
2023-01-19T22:01:48.629Z,2.53
2023-01-19T22:04:16.695Z,2.58
2023-01-19T22:06:46.188Z,2.58
2023-01-19T22:09:14.138Z,2.53
2023-01-19T22:11:42.373Z,2.53
2023-01-19T22:14:11.546Z,2.59
2023-01-19T22:16:42.303Z,2.58
2023-01-19T22:19:16.093Z,2.58
2023-01-19T22:24:33.924Z,2.64
2023-01-19T22:27:01.991Z,2.61
2023-01-19T22:29:30.061Z,2.65
2023-01-19T22:31:58.086Z,2.58
2023-01-19T22:34:26.244Z,2.67
2023-01-19T22:36:54.227Z,2.69
2023-01-19T22:39:22.259Z,2.73
2023-01-19T22:41:51.591Z,2.73
2023-01-19T22:44:21.192Z,2.75
2023-01-19T22:46:49.885Z,2.73
2023-01-19T22:49:18.438Z,2.77
2023-01-19T22:51:46.668Z,2.77
2023-01-19T22:54:14.782Z,2.77
2023-01-19T22:56:43.332Z,2.75
2023-01-19T22:59:12.649Z,2.73
2023-01-19T23:01:41.711Z,2.73
2023-01-19T23:04:12.001Z,2.79
2023-01-19T23:06:40.064Z,2.86
2023-01-19T23:09:08.927Z,2.84
2023-01-19T23:11:37.526Z,2.85
2023-01-19T23:14:07.051Z,2.89
2023-01-19T23:16:36.599Z,2.94
2023-01-19T23:19:04.984Z,2.97
2023-01-19T23:21:33.618Z,2.98
2023-01-19T23:24:02.280Z,2.94
2023-01-19T23:26:31.557Z,2.94
2023-01-19T23:29:00.842Z,2.97
2023-01-19T23:31:29.753Z,2.98
2023-01-19T23:34:00.118Z,3.04
2023-01-19T23:36:29.178Z,3.07
2023-01-19T23:38:57.837Z,3.07
2023-01-19T23:41:26.242Z,3.09
2023-01-19T23:43:54.256Z,3.11
2023-01-19T23:46:22.535Z,3.15
2023-01-19T23:48:50.884Z,3.16
2023-01-19T23:51:21.203Z,3.10
2023-01-19T23:53:49.501Z,3.10
2023-01-19T23:56:18.619Z,3.17
2023-01-19T23:58:47.327Z,3.18
